Terminal Aerodrome Forecast
Issued by NWS Austin/San Antonio, TX

Home | Current Version | Previous Version | Text Only | Print | Product List | Glossary On
Versions: 1 2 3 4 5 6 7 8 9 10 11 12 13 14
000
FTUS44 KEWX 170522
TAFAUS
TAF
KAUS 170522Z 1706/1812 17010KT P6SM BKN018
     FM171600 18013KT P6SM SCT040 SCT250
     FM180800 19005KT P6SM BKN015=

USA.gov is the U.S. government's official web portal to all federal, state and local government web resources and services.